Time;durP1;ratioP1;P1;durP2;ratioP2;P2;SDS_P1;SDS_P2;PMS_P1;PMS_P2;Temp;Humidity;BMP_temperature;BMP_pressure;BME280_temperature;BME280_humidity;BME280_pressure;Samples;Min_cycle;Max_cycle;Signal;HPM_P1;HPM_P2
2022/01/19 00:00:31;;;;;;;39.83;24.70;;;;;;;;;;5011713;28;20284;-80
2022/01/19 00:02:58;;;;;;;37.20;24.83;;;;;;;;;;5011793;28;20746;-80
2022/01/19 00:05:25;;;;;;;40.10;24.30;;;;;;;;;;5011788;28;20291;-81
2022/01/19 00:07:53;;;;;;;37.77;23.70;;;;;;;;;;5010880;28;20233;-80
2022/01/19 00:10:27;;;;;;;36.67;23.33;;;;;;;;;;5011618;28;20359;-80
2022/01/19 00:12:54;;;;;;;38.50;23.47;;;;;;;;;;5013232;28;20695;-80
2022/01/19 00:15:22;;;;;;;41.40;24.70;;;;;;;;;;5015615;28;20202;-80
2022/01/19 00:17:49;;;;;;;38.27;24.90;;;;;;;;;;5015733;28;20231;-80
2022/01/19 00:20:16;;;;;;;37.83;24.40;;;;;;;;;;5015385;28;20241;-80
2022/01/19 00:22:43;;;;;;;37.33;23.30;;;;;;;;;;5014392;28;20243;-80
2022/01/19 00:25:12;;;;;;;40.03;24.60;;;;;;;;;;5015711;28;20315;-80
2022/01/19 00:27:39;;;;;;;38.70;24.60;;;;;;;;;;5015337;28;20284;-80
2022/01/19 00:30:08;;;;;;;38.37;23.67;;;;;;;;;;5015158;28;20238;-80
2022/01/19 00:32:35;;;;;;;36.70;23.53;;;;;;;;;;5014670;28;20299;-80
2022/01/19 00:35:02;;;;;;;36.57;23.50;;;;;;;;;;5015036;28;20193;-80
2022/01/19 00:37:30;;;;;;;39.23;24.23;;;;;;;;;;5015179;28;20288;-80
2022/01/19 00:39:57;;;;;;;37.93;23.47;;;;;;;;;;5015279;28;20314;-80
2022/01/19 00:42:25;;;;;;;38.90;24.67;;;;;;;;;;5014488;28;20690;-80
2022/01/19 00:44:53;;;;;;;39.03;24.20;;;;;;;;;;5014580;28;20271;-80
2022/01/19 00:47:20;;;;;;;42.10;23.83;;;;;;;;;;5014124;28;20232;-80
2022/01/19 00:49:48;;;;;;;38.33;24.63;;;;;;;;;;5011886;28;20712;-80
2022/01/19 00:52:15;;;;;;;40.17;24.53;;;;;;;;;;5014668;28;20205;-80
2022/01/19 00:54:43;;;;;;;40.60;23.80;;;;;;;;;;5014260;28;20284;-80
2022/01/19 00:57:12;;;;;;;37.77;23.27;;;;;;;;;;5014768;28;20386;-80
2022/01/19 00:59:41;;;;;;;35.60;22.73;;;;;;;;;;5014454;28;20284;-80
2022/01/19 01:02:08;;;;;;;37.70;24.20;;;;;;;;;;5013751;28;20241;-80
2022/01/19 01:04:36;;;;;;;38.03;23.70;;;;;;;;;;5013721;28;20751;-80
2022/01/19 01:07:04;;;;;;;38.63;23.97;;;;;;;;;;5013539;28;20287;-80
2022/01/19 01:09:31;;;;;;;37.40;23.93;;;;;;;;;;5014683;28;20284;-80
2022/01/19 01:12:01;;;;;;;36.83;22.17;;;;;;;;;;5014366;28;20774;-80
2022/01/19 01:19:57;;;;;;;37.87;23.50;;;;;;;;;;5013370;28;20193;-80
2022/01/19 01:22:24;;;;;;;36.97;23.87;;;;;;;;;;5014109;28;20629;-80
2022/01/19 01:24:51;;;;;;;40.33;25.13;;;;;;;;;;5013855;28;20682;-81
2022/01/19 01:27:18;;;;;;;36.63;23.57;;;;;;;;;;5014208;28;20618;-80
2022/01/19 01:29:45;;;;;;;36.83;23.73;;;;;;;;;;5014311;28;20755;-80
2022/01/19 01:32:13;;;;;;;37.03;23.60;;;;;;;;;;5013765;28;20243;-81
2022/01/19 01:34:41;;;;;;;38.80;24.03;;;;;;;;;;5013799;28;20276;-80
2022/01/19 01:37:09;;;;;;;39.23;24.20;;;;;;;;;;5013162;28;20674;-80
2022/01/19 01:39:36;;;;;;;40.37;23.67;;;;;;;;;;5014203;28;20285;-80
2022/01/19 01:42:09;;;;;;;40.83;24.20;;;;;;;;;;5013499;28;20723;-80
2022/01/19 01:44:37;;;;;;;38.97;23.63;;;;;;;;;;5014223;28;20339;-80
2022/01/19 01:47:04;;;;;;;40.87;24.83;;;;;;;;;;5013438;28;20209;-80
2022/01/19 01:49:45;;;;;;;42.30;25.00;;;;;;;;;;5013692;28;20232;-80
2022/01/19 01:54:59;;;;;;;37.07;23.20;;;;;;;;;;5013577;28;20319;-81
2022/01/19 01:57:26;;;;;;;39.73;24.90;;;;;;;;;;5014028;28;20575;-80
2022/01/19 01:59:53;;;;;;;35.47;23.17;;;;;;;;;;5013145;28;20240;-81
2022/01/19 02:02:20;;;;;;;38.83;24.33;;;;;;;;;;5013171;28;20292;-81
2022/01/19 02:04:48;;;;;;;42.47;26.13;;;;;;;;;;5013390;28;20307;-80
2022/01/19 02:07:32;;;;;;;40.93;25.17;;;;;;;;;;5012869;28;20220;-81
2022/01/19 02:10:03;;;;;;;39.60;25.73;;;;;;;;;;5013371;28;20316;-81
2022/01/19 02:23:37;;;;;;;37.43;23.40;;;;;;;;;;5012680;28;20769;-81
2022/01/19 02:26:11;;;;;;;37.77;23.17;;;;;;;;;;5011961;28;20216;-81
2022/01/19 02:40:06;;;;;;;39.87;25.30;;;;;;;;;;5009432;28;20298;-81
2022/01/19 02:42:28;;;;;;;40.27;26.17;;;;;;;;;;5012656;28;20235;-80
2022/01/19 02:50:27;;;;;;;37.60;25.37;;;;;;;;;;5012543;28;20686;-80
2022/01/19 02:52:56;;;;;;;38.60;25.23;;;;;;;;;;5013835;28;20201;-87
2022/01/19 02:55:23;;;;;;;38.00;25.50;;;;;;;;;;5013847;28;20266;-87
2022/01/19 02:57:51;;;;;;;39.83;25.23;;;;;;;;;;5013467;28;20212;-87
2022/01/19 03:08:44;;;;;;;40.37;25.93;;;;;;;;;;5015190;28;20243;-86
2022/01/19 03:11:11;;;;;;;40.00;25.77;;;;;;;;;;5017560;28;20247;-87
2022/01/19 03:13:39;;;;;;;40.80;26.27;;;;;;;;;;5012027;28;20235;-87
2022/01/19 03:16:06;;;;;;;40.53;26.20;;;;;;;;;;5012492;28;20267;-87
2022/01/19 03:18:33;;;;;;;42.03;26.47;;;;;;;;;;5012445;28;20215;-87
2022/01/19 03:21:01;;;;;;;38.27;26.10;;;;;;;;;;5012318;28;20656;-87
2022/01/19 03:23:28;;;;;;;43.90;27.30;;;;;;;;;;5012901;28;20627;-88
2022/01/19 03:25:58;;;;;;;40.70;27.17;;;;;;;;;;5012053;28;20320;-87
2022/01/19 03:28:25;;;;;;;40.20;26.60;;;;;;;;;;5012590;28;20205;-87
2022/01/19 03:30:54;;;;;;;41.83;26.00;;;;;;;;;;5012163;28;20696;-87
2022/01/19 03:33:22;;;;;;;39.87;26.80;;;;;;;;;;5012641;28;20203;-87
2022/01/19 03:35:49;;;;;;;42.50;27.90;;;;;;;;;;5012750;28;20204;-87
2022/01/19 03:38:17;;;;;;;39.57;26.83;;;;;;;;;;5012105;28;20294;-87
2022/01/19 03:40:44;;;;;;;41.33;27.87;;;;;;;;;;5013675;28;20224;-87
2022/01/19 03:43:13;;;;;;;38.83;26.73;;;;;;;;;;5018824;28;20353;-87
2022/01/19 03:45:48;;;;;;;40.53;26.90;;;;;;;;;;5012626;28;20259;-87
2022/01/19 03:48:31;;;;;;;40.50;26.30;;;;;;;;;;5016512;28;20224;-87
2022/01/19 03:50:58;;;;;;;38.37;25.93;;;;;;;;;;5016475;28;20294;-87
2022/01/19 03:53:25;;;;;;;43.93;27.13;;;;;;;;;;5015536;28;20274;-87
2022/01/19 03:55:52;;;;;;;39.33;26.47;;;;;;;;;;5014633;28;20283;-87
2022/01/19 03:58:22;;;;;;;42.13;26.73;;;;;;;;;;5015982;28;20223;-87
2022/01/19 04:00:54;;;;;;;39.30;25.73;;;;;;;;;;5014891;28;20292;-87
2022/01/19 04:03:27;;;;;;;38.87;25.30;;;;;;;;;;5015926;28;20209;-87
2022/01/19 04:06:00;;;;;;;39.03;25.90;;;;;;;;;;5016117;28;20224;-87
2022/01/19 04:08:27;;;;;;;38.03;24.87;;;;;;;;;;5016689;28;20205;-87
2022/01/19 04:10:54;;;;;;;39.30;25.30;;;;;;;;;;5016340;28;20201;-87
2022/01/19 04:13:43;;;;;;;39.33;25.53;;;;;;;;;;5017789;28;20283;-87
2022/01/19 04:16:10;;;;;;;39.37;25.07;;;;;;;;;;5020319;28;20213;-86
2022/01/19 04:18:37;;;;;;;39.77;25.97;;;;;;;;;;5015793;28;20292;-87
2022/01/19 04:21:07;;;;;;;39.67;26.53;;;;;;;;;;5015009;28;20224;-87
2022/01/19 04:23:34;;;;;;;40.63;25.40;;;;;;;;;;5015721;28;20295;-87
2022/01/19 04:26:03;;;;;;;40.23;26.10;;;;;;;;;;5015593;28;20303;-87
2022/01/19 04:28:33;;;;;;;42.63;26.30;;;;;;;;;;5015325;28;20209;-87
2022/01/19 04:31:00;;;;;;;41.07;26.23;;;;;;;;;;5015389;28;20201;-86
2022/01/19 04:33:28;;;;;;;41.47;28.10;;;;;;;;;;5016070;28;20633;-87
2022/01/19 04:36:08;;;;;;;41.53;27.23;;;;;;;;;;5015964;28;20197;-87
2022/01/19 04:44:28;;;;;;;41.20;27.20;;;;;;;;;;5014939;28;20598;-88
2022/01/19 05:03:37;;;;;;;43.23;27.00;;;;;;;;;;4841738;29;20226;-86
2022/01/19 05:06:08;;;;;;;40.33;26.70;;;;;;;;;;4841108;29;20223;-88
2022/01/19 05:08:52;;;;;;;43.43;27.47;;;;;;;;;;4841926;29;20221;-87
2022/01/19 05:14:04;;;;;;;43.87;27.20;;;;;;;;;;4841914;29;20210;-88
2022/01/19 05:16:33;;;;;;;43.33;25.80;;;;;;;;;;4841947;29;20350;-88
2022/01/19 05:19:00;;;;;;;42.13;27.13;;;;;;;;;;4844561;29;20203;-87
2022/01/19 05:21:27;;;;;;;43.47;26.57;;;;;;;;;;4846536;29;20227;-87
2022/01/19 05:23:55;;;;;;;41.40;26.23;;;;;;;;;;4842315;29;20241;-87
2022/01/19 05:26:22;;;;;;;43.13;27.20;;;;;;;;;;4847743;29;20253;-87
2022/01/19 05:28:50;;;;;;;41.43;26.07;;;;;;;;;;4868698;29;20283;-88
2022/01/19 05:31:17;;;;;;;43.43;25.87;;;;;;;;;;4920372;28;20674;-88
2022/01/19 05:33:46;;;;;;;44.60;27.63;;;;;;;;;;4973972;28;20615;-88
2022/01/19 05:36:13;;;;;;;45.50;28.70;;;;;;;;;;5012143;28;20618;-88
2022/01/19 05:38:40;;;;;;;47.43;27.87;;;;;;;;;;5014934;28;20292;-88
2022/01/19 05:41:07;;;;;;;41.87;26.70;;;;;;;;;;5014365;28;20279;-87
2022/01/19 05:43:35;;;;;;;42.93;27.23;;;;;;;;;;5013286;28;20330;-88
2022/01/19 05:46:02;;;;;;;41.30;26.33;;;;;;;;;;5015065;28;20233;-88
2022/01/19 05:48:29;;;;;;;45.17;27.57;;;;;;;;;;5015116;28;20290;-87
2022/01/19 05:50:59;;;;;;;46.53;29.20;;;;;;;;;;5019272;28;20246;-87
2022/01/19 05:53:27;;;;;;;44.27;28.60;;;;;;;;;;5016947;28;20664;-87
2022/01/19 05:55:54;;;;;;;41.37;27.23;;;;;;;;;;5014266;28;20228;-88
2022/01/19 05:58:21;;;;;;;42.83;27.23;;;;;;;;;;5015366;28;20228;-87
2022/01/19 06:00:48;;;;;;;43.93;27.47;;;;;;;;;;5015098;28;20221;-87
2022/01/19 06:03:17;;;;;;;42.00;26.83;;;;;;;;;;5016282;28;20284;-87
2022/01/19 06:05:44;;;;;;;43.17;25.90;;;;;;;;;;5014011;28;20232;-88
2022/01/19 06:08:17;;;;;;;42.73;25.20;;;;;;;;;;5014146;28;20194;-86
2022/01/19 06:10:45;;;;;;;41.53;24.90;;;;;;;;;;5012207;28;20633;-89
2022/01/19 06:13:13;;;;;;;40.13;25.27;;;;;;;;;;5014460;28;20286;-89
2022/01/19 06:15:40;;;;;;;40.67;24.67;;;;;;;;;;5014680;28;20201;-90
2022/01/19 06:18:08;;;;;;;38.43;24.57;;;;;;;;;;5016924;28;20230;-89
2022/01/19 06:20:35;;;;;;;39.70;25.13;;;;;;;;;;5018654;28;20638;-89
2022/01/19 06:23:02;;;;;;;41.90;27.00;;;;;;;;;;5020311;28;20208;-89
2022/01/19 06:25:33;;;;;;;40.40;27.07;;;;;;;;;;5013996;28;20241;-88
2022/01/19 06:28:00;;;;;;;37.93;24.00;;;;;;;;;;5016002;28;20268;-89
2022/01/19 06:30:29;;;;;;;42.93;25.97;;;;;;;;;;5014229;28;20213;-88
2022/01/19 06:32:57;;;;;;;43.40;25.73;;;;;;;;;;5016744;28;20205;-89
2022/01/19 06:35:24;;;;;;;43.17;25.53;;;;;;;;;;5015456;28;20213;-89
2022/01/19 06:37:51;;;;;;;44.43;25.53;;;;;;;;;;5016493;28;20197;-86
2022/01/19 06:40:20;;;;;;;46.80;27.97;;;;;;;;;;5018005;28;20619;-90
2022/01/19 06:42:49;;;;;;;41.23;26.33;;;;;;;;;;5017454;28;20248;-90
2022/01/19 06:45:16;;;;;;;39.80;24.50;;;;;;;;;;5014691;28;20261;-90
2022/01/19 06:47:44;;;;;;;36.37;23.67;;;;;;;;;;5015160;28;20205;-91
2022/01/19 06:50:12;;;;;;;36.23;22.50;;;;;;;;;;5015761;28;20201;-89
2022/01/19 06:52:40;;;;;;;39.23;24.40;;;;;;;;;;5023242;28;20201;-88
2022/01/19 06:55:08;;;;;;;40.47;24.70;;;;;;;;;;5014097;28;20205;-82
2022/01/19 06:57:36;;;;;;;40.90;23.73;;;;;;;;;;5013125;28;20669;-87
2022/01/19 07:00:05;;;;;;;39.80;24.03;;;;;;;;;;5012116;28;20224;-84
2022/01/19 07:02:32;;;;;;;39.63;22.80;;;;;;;;;;5012736;28;20232;-85
2022/01/19 07:05:00;;;;;;;38.67;22.80;;;;;;;;;;5005525;28;20771;-84
2022/01/19 07:07:27;;;;;;;40.40;23.63;;;;;;;;;;5010961;28;20229;-84
2022/01/19 07:09:55;;;;;;;39.13;22.67;;;;;;;;;;5011895;28;20201;-87
2022/01/19 07:12:22;;;;;;;37.90;22.90;;;;;;;;;;4999299;28;20755;-87
2022/01/19 07:14:49;;;;;;;41.77;24.83;;;;;;;;;;5010253;28;20845;-87
2022/01/19 07:17:18;;;;;;;38.63;24.03;;;;;;;;;;5012000;28;20225;-87
2022/01/19 07:19:45;;;;;;;43.73;25.87;;;;;;;;;;5007476;28;20221;-86
2022/01/19 07:22:15;;;;;;;41.73;25.77;;;;;;;;;;5016328;28;20196;-87
2022/01/19 07:24:42;;;;;;;40.73;24.97;;;;;;;;;;5012565;28;20227;-87
2022/01/19 07:27:10;;;;;;;38.63;23.40;;;;;;;;;;5011609;28;20316;-86
2022/01/19 07:29:37;;;;;;;38.30;23.77;;;;;;;;;;5011466;28;20644;-86
2022/01/19 07:32:04;;;;;;;40.43;23.87;;;;;;;;;;5010742;28;20280;-87
2022/01/19 07:34:33;;;;;;;37.77;23.37;;;;;;;;;;5011427;28;20228;-87
2022/01/19 07:37:00;;;;;;;36.37;22.97;;;;;;;;;;5011314;28;20193;-85
2022/01/19 07:39:27;;;;;;;39.80;23.97;;;;;;;;;;5010512;28;20638;-84
2022/01/19 07:41:55;;;;;;;40.13;24.57;;;;;;;;;;5009651;28;20251;-85
2022/01/19 07:44:23;;;;;;;41.40;25.27;;;;;;;;;;5011187;28;20228;-86
2022/01/19 07:46:51;;;;;;;43.63;25.97;;;;;;;;;;5010826;28;20256;-85
2022/01/19 07:49:18;;;;;;;47.50;28.10;;;;;;;;;;5010809;28;20249;-86
2022/01/19 07:51:47;;;;;;;44.13;27.63;;;;;;;;;;5012945;28;20268;-85
2022/01/19 07:54:14;;;;;;;47.37;28.17;;;;;;;;;;5012266;28;20220;-85
2022/01/19 07:56:41;;;;;;;49.17;29.80;;;;;;;;;;5012607;28;20807;-85
2022/01/19 07:59:08;;;;;;;48.83;29.13;;;;;;;;;;5012675;28;20197;-85
2022/01/19 08:01:36;;;;;;;54.63;31.10;;;;;;;;;;5011282;28;20289;-85
2022/01/19 08:04:04;;;;;;;44.67;27.60;;;;;;;;;;5011003;28;20200;-85
2022/01/19 08:06:31;;;;;;;47.57;29.10;;;;;;;;;;5011646;28;20231;-85
2022/01/19 08:09:02;;;;;;;47.57;29.20;;;;;;;;;;5010872;28;20524;-86
2022/01/19 08:11:29;;;;;;;50.10;28.40;;;;;;;;;;5010398;28;20202;-85
2022/01/19 08:13:56;;;;;;;48.00;29.87;;;;;;;;;;5010598;28;20255;-85
2022/01/19 08:16:23;;;;;;;51.27;29.97;;;;;;;;;;5009638;28;20283;-84
2022/01/19 08:18:50;;;;;;;45.13;27.30;;;;;;;;;;5008674;28;20613;-86
2022/01/19 08:21:18;;;;;;;44.30;27.37;;;;;;;;;;5011269;28;20232;-85
2022/01/19 08:23:45;;;;;;;40.63;25.80;;;;;;;;;;5015880;28;20189;-85
2022/01/19 08:26:15;;;;;;;40.73;23.83;;;;;;;;;;5010990;28;20256;-85
2022/01/19 08:28:42;;;;;;;43.93;24.73;;;;;;;;;;5008056;28;20205;-86
2022/01/19 08:31:10;;;;;;;46.10;26.90;;;;;;;;;;5010243;28;20645;-88
2022/01/19 08:33:37;;;;;;;45.10;25.60;;;;;;;;;;5011575;28;20690;-85
2022/01/19 08:36:04;;;;;;;47.93;25.73;;;;;;;;;;5010488;28;20288;-85
2022/01/19 08:38:32;;;;;;;49.17;28.10;;;;;;;;;;5011465;28;20244;-86
2022/01/19 08:41:00;;;;;;;46.07;28.10;;;;;;;;;;5011558;28;20301;-86
2022/01/19 08:43:31;;;;;;;52.63;28.73;;;;;;;;;;5011399;28;20260;-86
2022/01/19 08:45:59;;;;;;;45.90;26.13;;;;;;;;;;5014282;28;20292;-87
2022/01/19 08:48:27;;;;;;;42.70;25.13;;;;;;;;;;5015437;28;20193;-87
2022/01/19 08:50:55;;;;;;;47.13;25.87;;;;;;;;;;5013332;28;20217;-87
2022/01/19 08:53:24;;;;;;;42.17;25.03;;;;;;;;;;5017706;28;20196;-87
2022/01/19 08:55:51;;;;;;;43.13;24.27;;;;;;;;;;5013148;28;20618;-87
2022/01/19 08:58:18;;;;;;;39.00;22.90;;;;;;;;;;5014339;28;20283;-87
2022/01/19 09:00:47;;;;;;;45.03;24.03;;;;;;;;;;5013729;28;20255;-87
2022/01/19 09:03:16;;;;;;;42.80;25.30;;;;;;;;;;5013303;28;20197;-86
2022/01/19 09:05:43;;;;;;;40.60;24.50;;;;;;;;;;5013029;28;20228;-86
2022/01/19 09:08:11;;;;;;;40.87;22.87;;;;;;;;;;5013374;28;20597;-86
2022/01/19 09:10:40;;;;;;;41.93;24.13;;;;;;;;;;5014273;28;20201;-85
2022/01/19 09:13:07;;;;;;;38.97;24.00;;;;;;;;;;5011180;28;20280;-87
2022/01/19 09:15:35;;;;;;;40.47;23.47;;;;;;;;;;5014076;28;20205;-89
2022/01/19 09:18:04;;;;;;;43.93;23.07;;;;;;;;;;5014551;28;20197;-87
2022/01/19 09:20:31;;;;;;;40.57;23.47;;;;;;;;;;5014669;28;20229;-88
2022/01/19 09:22:59;;;;;;;40.83;22.83;;;;;;;;;;5016602;28;20193;-88
2022/01/19 09:25:26;;;;;;;41.57;23.67;;;;;;;;;;5020305;28;20213;-87
2022/01/19 09:27:53;;;;;;;38.50;21.50;;;;;;;;;;5015014;28;20229;-87
2022/01/19 09:30:24;;;;;;;38.00;21.73;;;;;;;;;;5013938;28;20225;-87
2022/01/19 09:33:05;;;;;;;39.80;23.10;;;;;;;;;;5013846;28;20201;-88
2022/01/19 09:35:50;;;;;;;43.67;28.27;;;;;;;;;;5013973;28;20279;-88
2022/01/19 09:38:18;;;;;;;41.43;24.43;;;;;;;;;;5014561;28;20240;-89
2022/01/19 09:40:45;;;;;;;40.20;24.50;;;;;;;;;;5014292;28;20680;-88
2022/01/19 09:43:12;;;;;;;45.70;26.17;;;;;;;;;;5014493;28;20712;-90
2022/01/19 09:45:40;;;;;;;42.13;25.03;;;;;;;;;;5015083;28;20234;-90
2022/01/19 09:48:08;;;;;;;44.63;25.90;;;;;;;;;;5012678;28;20221;-86
2022/01/19 09:50:37;;;;;;;42.13;24.70;;;;;;;;;;5012257;28;20233;-86
2022/01/19 09:53:05;;;;;;;40.60;24.27;;;;;;;;;;5013116;28;20201;-86
2022/01/19 09:55:32;;;;;;;36.30;22.37;;;;;;;;;;5012937;28;20209;-86
2022/01/19 09:57:59;;;;;;;39.10;22.33;;;;;;;;;;5013281;28;20276;-87
2022/01/19 10:00:26;;;;;;;37.80;22.43;;;;;;;;;;5012718;28;20300;-88
2022/01/19 10:03:13;;;;;;;38.40;22.77;;;;;;;;;;5011685;28;20672;-87
2022/01/19 10:05:54;;;;;;;36.17;21.40;;;;;;;;;;5011268;28;20581;-88
2022/01/19 10:08:27;;;;;;;42.07;24.43;;;;;;;;;;5012275;28;20227;-87
2022/01/19 10:11:05;;;;;;;38.20;24.43;;;;;;;;;;5011775;28;20268;-86
2022/01/19 10:19:15;;;;;;;32.97;20.53;;;;;;;;;;5010571;28;20193;-87
2022/01/19 10:21:58;;;;;;;36.60;21.93;;;;;;;;;;5010335;28;20631;-86
2022/01/19 10:24:36;;;;;;;35.30;20.67;;;;;;;;;;5010446;28;20201;-86
2022/01/19 10:27:18;;;;;;;37.47;20.87;;;;;;;;;;5010752;28;20230;-83
2022/01/19 10:29:45;;;;;;;36.27;21.67;;;;;;;;;;5009027;28;20240;-82
2022/01/19 10:32:13;;;;;;;38.70;21.27;;;;;;;;;;5009401;28;20244;-83
2022/01/19 10:34:40;;;;;;;34.67;21.50;;;;;;;;;;5010134;28;20300;-82
2022/01/19 10:37:08;;;;;;;38.50;23.27;;;;;;;;;;5009451;28;20876;-83
2022/01/19 10:39:40;;;;;;;40.77;24.20;;;;;;;;;;5010812;28;20746;-82
2022/01/19 10:42:09;;;;;;;37.57;22.33;;;;;;;;;;5007333;28;20228;-82
2022/01/19 10:44:37;;;;;;;38.30;21.47;;;;;;;;;;5005069;28;20741;-83
2022/01/19 10:47:05;;;;;;;37.73;22.77;;;;;;;;;;5010116;28;20303;-83
2022/01/19 10:49:47;;;;;;;35.90;22.23;;;;;;;;;;5008662;28;20308;-83
2022/01/19 10:52:27;;;;;;;37.10;22.73;;;;;;;;;;5008538;28;20573;-82
2022/01/19 10:54:57;;;;;;;34.50;21.13;;;;;;;;;;5010005;28;20201;-83
2022/01/19 10:57:24;;;;;;;34.53;20.63;;;;;;;;;;5008995;28;20224;-83
2022/01/19 10:59:53;;;;;;;34.40;20.60;;;;;;;;;;5011878;28;20280;-83
2022/01/19 11:02:20;;;;;;;34.67;22.50;;;;;;;;;;5009517;28;20229;-84
2022/01/19 11:04:47;;;;;;;36.80;22.57;;;;;;;;;;5009454;28;20205;-82
2022/01/19 11:07:18;;;;;;;37.20;22.43;;;;;;;;;;5009617;28;20304;-83
2022/01/19 11:09:57;;;;;;;37.07;22.13;;;;;;;;;;5009176;28;20688;-82
2022/01/19 11:12:27;;;;;;;38.47;22.77;;;;;;;;;;5006862;28;20208;-82
2022/01/19 11:14:54;;;;;;;34.47;22.40;;;;;;;;;;5010675;28;20280;-82
2022/01/19 11:17:21;;;;;;;38.43;22.70;;;;;;;;;;5011764;28;20231;-83
2022/01/19 11:19:49;;;;;;;34.83;21.67;;;;;;;;;;5011215;28;20640;-83
2022/01/19 11:22:34;;;;;;;32.80;20.40;;;;;;;;;;5010978;28;20620;-82
2022/01/19 11:25:06;;;;;;;32.90;20.43;;;;;;;;;;5009334;28;20604;-82
2022/01/19 11:27:37;;;;;;;34.53;20.37;;;;;;;;;;5011110;28;20267;-82
2022/01/19 11:30:17;;;;;;;32.27;20.73;;;;;;;;;;5007589;28;20229;-83
2022/01/19 11:32:44;;;;;;;30.40;20.23;;;;;;;;;;5011590;28;20239;-83
2022/01/19 11:35:32;;;;;;;31.23;20.40;;;;;;;;;;5009873;28;20232;-82
2022/01/19 11:37:59;;;;;;;32.63;20.60;;;;;;;;;;5010811;28;20244;-83
2022/01/19 11:40:34;;;;;;;34.63;20.53;;;;;;;;;;5009825;28;20241;-83
2022/01/19 11:43:16;;;;;;;34.13;21.53;;;;;;;;;;5010955;28;20727;-83
2022/01/19 11:45:43;;;;;;;34.63;21.53;;;;;;;;;;5018444;28;20253;-83
2022/01/19 11:48:14;;;;;;;36.43;22.30;;;;;;;;;;5011168;28;20279;-83
2022/01/19 11:50:42;;;;;;;31.47;20.40;;;;;;;;;;5007071;28;20225;-82
2022/01/19 11:53:11;;;;;;;34.40;20.83;;;;;;;;;;5010936;28;20235;-82
2022/01/19 11:55:40;;;;;;;31.93;20.60;;;;;;;;;;5009372;28;20739;-83
2022/01/19 11:58:15;;;;;;;33.63;20.57;;;;;;;;;;5011625;28;20276;-83
2022/01/19 12:00:42;;;;;;;32.17;19.53;;;;;;;;;;5011370;28;20287;-83
2022/01/19 12:03:23;;;;;;;31.17;19.13;;;;;;;;;;5011099;28;20280;-83
2022/01/19 12:05:51;;;;;;;33.93;20.23;;;;;;;;;;5013762;28;20204;-83
2022/01/19 12:08:20;;;;;;;31.53;19.30;;;;;;;;;;5015982;28;20304;-84
2022/01/19 12:10:50;;;;;;;30.27;19.10;;;;;;;;;;5013645;28;20208;-82
2022/01/19 12:16:31;;;;;;;33.80;19.30;;;;;;;;;;5011725;28;20209;-82
2022/01/19 12:19:00;;;;;;;31.97;18.40;;;;;;;;;;5015055;28;20205;-81
2022/01/19 12:21:44;;;;;;;25.27;17.27;;;;;;;;;;5014669;28;20295;-81
2022/01/19 12:24:19;;;;;;;28.10;17.33;;;;;;;;;;5017035;28;20284;-81
2022/01/19 12:27:04;;;;;;;24.77;16.97;;;;;;;;;;5019631;28;20823;-82
2022/01/19 12:29:39;;;;;;;28.23;16.27;;;;;;;;;;5017087;28;20637;-81
2022/01/19 12:32:08;;;;;;;23.93;16.47;;;;;;;;;;5014617;28;20196;-81
2022/01/19 12:34:45;;;;;;;23.00;15.80;;;;;;;;;;5015272;28;20303;-81
2022/01/19 12:37:13;;;;;;;25.50;15.53;;;;;;;;;;5014718;28;20593;-82
2022/01/19 12:39:42;;;;;;;23.97;15.43;;;;;;;;;;5014938;28;20211;-81
2022/01/19 12:42:17;;;;;;;22.90;15.50;;;;;;;;;;5013713;28;20343;-81
2022/01/19 12:44:46;;;;;;;25.23;15.50;;;;;;;;;;5013433;28;20197;-81
2022/01/19 12:47:31;;;;;;;22.00;15.30;;;;;;;;;;5013703;28;20224;-82
2022/01/19 12:49:59;;;;;;;24.27;15.10;;;;;;;;;;5014565;28;20224;-82
2022/01/19 12:52:28;;;;;;;22.60;15.43;;;;;;;;;;5009178;28;20840;-82
2022/01/19 12:54:56;;;;;;;24.43;15.30;;;;;;;;;;5006095;28;20290;-81
2022/01/19 12:57:24;;;;;;;21.13;15.57;;;;;;;;;;5008317;28;20229;-82
2022/01/19 12:59:52;;;;;;;22.70;13.70;;;;;;;;;;5009243;28;20241;-81
2022/01/19 13:02:21;;;;;;;21.20;14.43;;;;;;;;;;5011545;28;20292;-83
2022/01/19 13:04:53;;;;;;;21.87;14.77;;;;;;;;;;5013165;28;20247;-81
2022/01/19 13:07:22;;;;;;;26.33;16.93;;;;;;;;;;5014467;28;20193;-80
2022/01/19 13:10:02;;;;;;;20.37;13.73;;;;;;;;;;5012296;28;20228;-82
2022/01/19 13:12:38;;;;;;;20.47;13.40;;;;;;;;;;5011596;28;20267;-82
2022/01/19 13:15:06;;;;;;;20.13;14.87;;;;;;;;;;5009804;28;20201;-82
2022/01/19 13:17:43;;;;;;;20.27;13.37;;;;;;;;;;5012252;28;20221;-82
2022/01/19 13:20:11;;;;;;;18.47;12.70;;;;;;;;;;5011638;28;20223;-82
2022/01/19 13:22:48;;;;;;;21.37;12.93;;;;;;;;;;5012835;28;20629;-82
2022/01/19 13:25:21;;;;;;;19.20;13.30;;;;;;;;;;5009317;28;20197;-82
2022/01/19 13:27:57;;;;;;;18.33;12.77;;;;;;;;;;5011388;28;20292;-82
2022/01/19 13:30:25;;;;;;;17.40;13.03;;;;;;;;;;5012954;28;20193;-82
2022/01/19 13:32:52;;;;;;;19.90;12.40;;;;;;;;;;5009984;28;20681;-82
2022/01/19 13:35:19;;;;;;;15.73;10.83;;;;;;;;;;5001740;28;20581;-82
2022/01/19 13:37:51;;;;;;;23.40;12.10;;;;;;;;;;5013704;28;20221;-82
2022/01/19 13:40:21;;;;;;;17.53;11.87;;;;;;;;;;5012739;28;20197;-82
2022/01/19 13:42:50;;;;;;;17.53;11.30;;;;;;;;;;5009667;28;20229;-82
2022/01/19 13:45:29;;;;;;;21.40;10.93;;;;;;;;;;5001447;28;20673;-82
2022/01/19 13:48:06;;;;;;;20.07;12.77;;;;;;;;;;5007684;28;20232;-82
2022/01/19 13:50:34;;;;;;;19.47;12.47;;;;;;;;;;5009428;28;20660;-83
2022/01/19 13:53:01;;;;;;;18.57;12.33;;;;;;;;;;5012105;28;20292;-84
2022/01/19 13:55:28;;;;;;;17.47;13.00;;;;;;;;;;5003585;28;20201;-84
2022/01/19 13:58:06;;;;;;;18.60;11.73;;;;;;;;;;5006447;28;20239;-84
2022/01/19 14:00:34;;;;;;;20.77;13.10;;;;;;;;;;5011026;28;20251;-85
2022/01/19 14:03:10;;;;;;;20.13;13.13;;;;;;;;;;5010311;28;20197;-86
2022/01/19 14:05:44;;;;;;;18.67;13.33;;;;;;;;;;5013371;28;20213;-85
2022/01/19 14:08:11;;;;;;;21.63;13.63;;;;;;;;;;5012010;28;20324;-86
2022/01/19 14:10:49;;;;;;;17.67;12.10;;;;;;;;;;5008210;28;20205;-86
2022/01/19 14:13:27;;;;;;;19.97;12.87;;;;;;;;;;5006214;28;20221;-86
2022/01/19 14:15:56;;;;;;;21.37;13.50;;;;;;;;;;5010102;28;21715;-89
2022/01/19 14:18:24;;;;;;;18.70;13.07;;;;;;;;;;5012276;28;20221;-90
2022/01/19 14:21:10;;;;;;;19.33;12.27;;;;;;;;;;5010504;28;20202;-90
2022/01/19 14:23:54;;;;;;;18.47;12.53;;;;;;;;;;5014928;28;20623;-93
2022/01/19 14:26:23;;;;;;;21.57;12.80;;;;;;;;;;5015267;28;20205;-91
2022/01/19 14:32:03;;;;;;;18.07;11.27;;;;;;;;;;4969505;28;20432;-90
2022/01/19 14:34:34;;;;;;;17.63;12.33;;;;;;;;;;4961691;28;20252;-90
2022/01/19 14:37:14;;;;;;;19.07;12.63;;;;;;;;;;4973966;28;20261;-92
2022/01/19 14:40:03;;;;;;;16.37;11.03;;;;;;;;;;4963583;28;20207;-92
2022/01/19 14:43:06;;;;;;;15.23;10.73;;;;;;;;;;4971687;28;20241;-90
2022/01/19 14:45:37;;;;;;;21.37;12.60;;;;;;;;;;4962846;28;20594;-91
2022/01/19 14:48:16;;;;;;;19.00;12.83;;;;;;;;;;4969471;28;20260;-90
2022/01/19 14:50:46;;;;;;;18.40;12.03;;;;;;;;;;4967022;28;20209;-90
2022/01/19 14:53:33;;;;;;;17.30;12.20;;;;;;;;;;4967747;28;20209;-90
2022/01/19 14:56:21;;;;;;;19.40;13.50;;;;;;;;;;4963901;28;20317;-91
2022/01/19 14:58:51;;;;;;;20.17;12.03;;;;;;;;;;4967322;28;20209;-89
2022/01/19 15:01:23;;;;;;;20.70;12.40;;;;;;;;;;4969955;28;20375;-90
2022/01/19 15:03:56;;;;;;;22.53;13.27;;;;;;;;;;4958035;28;20205;-89
2022/01/19 15:09:26;;;;;;;;;;;;;;;;;;;;;
2022/01/19 15:11:55;;;;;;;18.53;11.30;;;;;;;;;;5009317;28;20669;-89
2022/01/19 15:17:08;;;;;;;18.53;10.50;;;;;;;;;;5005587;28;20569;-90
2022/01/19 15:19:38;;;;;;;17.13;11.43;;;;;;;;;;5008106;28;20670;-87
2022/01/19 15:22:08;;;;;;;16.63;10.70;;;;;;;;;;5018998;28;20287;-88
2022/01/19 15:24:35;;;;;;;19.23;12.57;;;;;;;;;;5013706;28;20203;-89
2022/01/19 15:27:02;;;;;;;13.67;10.13;;;;;;;;;;5016221;28;20364;-88
2022/01/19 15:29:30;;;;;;;16.03;10.13;;;;;;;;;;5006793;28;20226;-88
2022/01/19 15:31:57;;;;;;;12.10;7.47;;;;;;;;;;5011466;28;20208;-88
2022/01/19 15:34:24;;;;;;;13.50;8.57;;;;;;;;;;5011533;28;20216;-90
2022/01/19 15:36:54;;;;;;;13.33;9.00;;;;;;;;;;5006671;28;20220;-92
2022/01/19 15:39:47;;;;;;;16.27;10.27;;;;;;;;;;5010338;28;20208;-93
2022/01/19 15:42:17;;;;;;;18.13;11.13;;;;;;;;;;5010414;28;20703;-91
2022/01/19 15:44:45;;;;;;;17.00;11.10;;;;;;;;;;5018579;28;20207;-91
2022/01/19 15:47:15;;;;;;;14.37;9.93;;;;;;;;;;5010312;28;20208;-90
2022/01/19 15:49:55;;;;;;;16.00;10.27;;;;;;;;;;5011941;28;20646;-90
2022/01/19 15:52:25;;;;;;;17.37;9.67;;;;;;;;;;5012977;28;20280;-91
2022/01/19 15:54:54;;;;;;;14.87;9.63;;;;;;;;;;5011997;28;20207;-89
2022/01/19 15:57:25;;;;;;;17.17;10.07;;;;;;;;;;5005357;28;20201;-88
2022/01/19 15:59:53;;;;;;;15.50;10.60;;;;;;;;;;5010594;28;20625;-88
2022/01/19 16:02:21;;;;;;;18.53;10.03;;;;;;;;;;5009926;28;20286;-88